Home   Weather   French Guiana   Maripasoula   Past weeks
Flag for French Guiana

Past Weather in Maripasoula, French Guiana — Yesterday and Last 2 Weeks

Currently: 79 °F. Passing clouds. (Weather station: Cayenne / Rochambeau, French Guiana). See more current weather

Past Weather in Maripasoula — Graph

°F

Maripasoula Temperature Yesterday

Maximum temperature yesterday: 88 °F (at 1:30 pm)
Minimum temperature yesterday: 75 °F (at 1:00 am)
Average temperature yesterday: 80 °F

High & Low Weather Summary for the Past Weeks

 TemperatureHumidityPressure
High93 °F (May 15, 12:30 pm)100% (May 11, 10:00 pm)29.98 "Hg (May 11, 10:00 pm)
Low75 °F (May 16, 4:00 am)59% (May 15, 12:30 pm)29.80 "Hg (May 14, 3:00 pm)
Average81 °F90%29.88 "Hg
* Reported May 11 10:00 pm — May 26 10:00 pm, Maripasoula. Weather by CustomWeather, © 2024

Note: Actual official high and low records may vary slightly from our data, if they occured in-between our weather recording intervals... More about our weather records

Maripasoula Weather History for the Previous 24 Hours

Scroll right to see more
 ConditionsComfort  
Time TempWeatherWind HumidityBarometerVisibility
10:00 pm
Sun, May 26
79 °FPassing clouds.3 mph100%29.95 "HgN/A
9:30 pm79 °FClear.No wind94%29.92 "Hg10 mi
9:00 pm79 °FClear.2 mph94%29.92 "Hg10 mi
8:30 pm79 °FPassing clouds.2 mph100%29.89 "HgN/A
8:00 pm79 °FClear.2 mph94%29.89 "Hg10 mi
7:30 pm81 °FClear.1 mph94%29.86 "Hg10 mi
7:00 pm81 °FClear.2 mph94%29.86 "Hg10 mi
6:30 pm82 °FScattered clouds.3 mph89%29.86 "HgN/A
6:00 pm82 °FPartly sunny.2 mph84%29.86 "HgN/A
5:30 pm84 °FPartly sunny.3 mph79%29.86 "HgN/A
5:00 pm84 °FMostly cloudy.3 mph79%29.86 "HgN/A
4:30 pm84 °FMostly cloudy.5 mph79%29.86 "HgN/A
4:00 pm84 °FCloudy.5 mph79%29.86 "HgN/A
3:00 pm84 °FPartly sunny.8 mph79%29.89 "HgN/A
2:00 pm86 °FMostly cloudy.15 mph75%29.89 "HgN/A
1:30 pm88 °FOvercast.9 mph75%29.92 "HgN/A
1:00 pm86 °FPartly sunny.6 mph75%29.92 "HgN/A
12:30 pm86 °FPartly sunny.3 mph75%29.92 "HgN/A
12:00 pm86 °FPassing clouds.3 mph79%29.95 "HgN/A
11:30 am84 °FBroken clouds.5 mph79%29.95 "HgN/A
11:00 am82 °FMostly cloudy.5 mph89%29.95 "HgN/A
10:00 am81 °FBroken clouds.2 mph89%29.95 "HgN/A
9:00 am79 °FPartly sunny.2 mph94%29.95 "HgN/A
8:00 am77 °FLight rain. Partly sunny.1 mph100%29.92 "HgN/A
7:30 am77 °FLight rain. Partly sunny.1 mph100%29.92 "HgN/A
7:00 am75 °FBroken clouds.2 mph100%29.92 "HgN/A
6:30 am75 °FPartly sunny.1 mph100%29.92 "HgN/A
6:00 am75 °FLight rain. Passing clouds.No wind100%29.89 "Hg6 mi
5:00 am75 °FLight rain. Fog.No wind100%29.89 "HgN/A
4:30 am75 °FFog.1 mph100%29.86 "Hg3 mi
4:00 am75 °FFog.1 mph100%29.86 "Hg1 mi
3:00 am75 °FFog.No wind100%29.89 "Hg1 mi
2:30 am75 °FFog.2 mph100%29.86 "Hg1 mi
2:00 am75 °FFog.3 mph100%29.89 "Hg1 mi
1:30 am75 °FFog.2 mph100%29.89 "Hg3 mi
1:00 am75 °FFog.No wind100%29.92 "Hg1 mi
12:30 am77 °FFog.3 mph100%29.92 "Hg1 mi
12:00 am77 °FPassing clouds.2 mph100%29.92 "HgN/A
Weather by CustomWeather, © 2024

See weather overview